Terminal Aerodrome Forecast
Issued by NWS Louisville, KY

Home | Current Version | Previous Version | Text Only | Print | Product List | Glossary On
Versions: 1 2 3 4 5 6 7 8 9 10 11 12 13 14 15 16 17 18 19 20 21
627
FTUS43 KLMK 071720
TAFBWG
TAF
KBWG 071720Z 0718/0818 02004KT P6SM SCT025
     FM080500 00000KT P6SM OVC090
     FM081300 30007G15KT P6SM SCT200=

USA.gov is the U.S. government's official web portal to all federal, state and local government web resources and services.